createdAt,value
2022-07-28T00:02:28.110Z,11.75
2022-07-28T00:05:15.394Z,11.65
2022-07-28T00:08:02.727Z,11.53
2022-07-28T00:10:49.693Z,11.52
2022-07-28T00:13:36.998Z,11.54
2022-07-28T00:16:24.095Z,11.56
2022-07-28T00:19:11.106Z,11.46
2022-07-28T00:21:58.175Z,11.36
2022-07-28T00:24:45.144Z,11.31
2022-07-28T00:27:32.346Z,11.31
2022-07-28T00:30:19.660Z,11.24
2022-07-28T00:33:06.685Z,11.21
2022-07-28T00:35:53.629Z,11.27
2022-07-28T00:38:44.278Z,11.26
2022-07-28T00:41:32.906Z,11.23
2022-07-28T00:44:20.116Z,11.27
2022-07-28T00:47:07.221Z,11.31
2022-07-28T00:49:55.085Z,11.19
2022-07-28T00:52:42.197Z,11.16
2022-07-28T00:55:29.249Z,11.09
2022-07-28T00:58:16.356Z,11.04
2022-07-28T01:01:05.978Z,11.07
2022-07-28T01:03:56.211Z,11.09
2022-07-28T01:07:07.886Z,11.20
2022-07-28T01:10:10.210Z,11.13
2022-07-28T01:13:10.507Z,11.04
2022-07-28T01:16:06.719Z,11.03
2022-07-28T01:19:05.131Z,11.01
2022-07-28T01:21:54.150Z,10.84
2022-07-28T01:24:56.678Z,10.77
2022-07-28T01:27:49.733Z,10.79
2022-07-28T01:30:43.411Z,10.75
2022-07-28T01:33:58.419Z,10.69
2022-07-28T01:36:49.593Z,10.69
2022-07-28T01:39:40.078Z,10.66
2022-07-28T01:42:35.601Z,10.66
2022-07-28T01:45:25.011Z,10.68
2022-07-28T01:48:15.421Z,10.70
2022-07-28T01:51:05.649Z,10.74
2022-07-28T01:53:55.205Z,10.82
2022-07-28T01:56:43.454Z,10.82
2022-07-28T01:59:31.787Z,10.82
2022-07-28T02:02:21.357Z,10.77
2022-07-28T02:05:10.111Z,10.82
2022-07-28T02:07:59.621Z,10.77
2022-07-28T02:11:09.767Z,10.65
2022-07-28T02:13:58.526Z,10.48
2022-07-28T02:16:49.786Z,10.51
2022-07-28T02:19:39.913Z,10.58
2022-07-28T02:22:27.939Z,10.58
2022-07-28T02:25:15.229Z,10.57
2022-07-28T02:28:06.615Z,10.51
2022-07-28T02:31:08.003Z,10.40
2022-07-28T02:34:01.981Z,10.45
2022-07-28T02:37:09.713Z,10.45
2022-07-28T02:40:00.556Z,10.49
2022-07-28T02:42:49.932Z,10.48
2022-07-28T02:45:40.020Z,10.45
2022-07-28T02:48:30.850Z,10.45
2022-07-28T02:51:21.277Z,10.49
2022-07-28T02:54:09.373Z,10.46
2022-07-28T02:56:58.535Z,10.43
2022-07-28T02:59:47.360Z,10.44
2022-07-28T03:02:36.786Z,10.56
2022-07-28T03:05:24.299Z,10.57
2022-07-28T03:08:12.166Z,10.53
2022-07-28T03:11:10.929Z,10.55
2022-07-28T03:13:57.888Z,10.49
2022-07-28T03:16:45.014Z,10.52
2022-07-28T03:19:32.464Z,10.43
2022-07-28T03:22:19.498Z,10.42
2022-07-28T03:25:17.157Z,10.40
2022-07-28T03:28:06.231Z,10.41
2022-07-28T03:31:00.539Z,10.33
2022-07-28T03:33:48.422Z,10.31
2022-07-28T03:36:40.145Z,10.52
2022-07-28T03:39:32.441Z,10.45
2022-07-28T03:42:21.150Z,10.37
2022-07-28T03:45:08.688Z,10.47
2022-07-28T03:47:57.749Z,10.50
2022-07-28T03:50:44.770Z,10.48
2022-07-28T03:53:31.738Z,10.47
2022-07-28T03:56:19.572Z,10.35
2022-07-28T03:59:06.595Z,10.35
2022-07-28T04:01:55.585Z,10.23
2022-07-28T04:04:42.598Z,10.26
2022-07-28T04:07:29.629Z,10.28
2022-07-28T04:10:17.850Z,10.21
2022-07-28T04:13:05.330Z,10.24
2022-07-28T04:15:52.575Z,10.29
2022-07-28T04:18:39.934Z,10.40
2022-07-28T04:21:27.169Z,10.36
2022-07-28T04:24:14.558Z,10.33
2022-07-28T04:27:01.834Z,10.45
2022-07-28T04:29:48.795Z,10.47
2022-07-28T04:32:35.831Z,10.61
2022-07-28T04:35:28.292Z,10.71
2022-07-28T04:38:17.244Z,10.94
2022-07-28T04:41:04.653Z,10.92
2022-07-28T04:43:51.670Z,11.03
2022-07-28T04:46:38.770Z,11.15
2022-07-28T04:49:26.114Z,11.26
2022-07-28T04:52:13.301Z,11.34
2022-07-28T04:55:00.594Z,11.58
2022-07-28T04:57:48.276Z,11.73
2022-07-28T05:00:35.392Z,11.54
2022-07-28T05:03:22.382Z,11.56
2022-07-28T05:06:09.409Z,11.61
2022-07-28T05:08:56.415Z,11.82
2022-07-28T05:11:43.466Z,11.77
2022-07-28T05:14:30.456Z,11.68
2022-07-28T05:17:17.398Z,11.79
2022-07-28T05:20:06.170Z,11.78
2022-07-28T05:22:57.508Z,11.85
2022-07-28T05:25:44.522Z,11.94
2022-07-28T05:28:31.465Z,11.85
2022-07-28T05:31:18.508Z,11.70
2022-07-28T05:34:06.171Z,11.72
2022-07-28T05:36:53.137Z,11.77
2022-07-28T05:39:40.133Z,11.60
2022-07-28T05:42:28.614Z,11.74
2022-07-28T05:45:17.509Z,11.58
2022-07-28T05:48:04.949Z,11.82
2022-07-28T05:50:51.944Z,11.70
2022-07-28T05:53:38.930Z,11.95
2022-07-28T05:56:25.910Z,12.24
2022-07-28T05:59:14.973Z,12.40
2022-07-28T06:02:03.558Z,12.77
2022-07-28T06:04:50.628Z,13.06
2022-07-28T06:07:42.955Z,13.09
2022-07-28T06:10:49.727Z,13.28
2022-07-28T06:13:37.473Z,13.59
2022-07-28T06:16:24.774Z,13.96
2022-07-28T06:19:11.798Z,14.18
2022-07-28T06:21:58.916Z,14.33
2022-07-28T06:24:46.094Z,14.61
2022-07-28T06:27:33.061Z,14.75
2022-07-28T06:30:20.938Z,14.90
2022-07-28T06:33:07.948Z,14.76
2022-07-28T06:35:55.093Z,14.83
2022-07-28T06:38:42.102Z,14.91
2022-07-28T06:41:29.111Z,15.19
2022-07-28T06:44:16.285Z,15.55
2022-07-28T06:47:03.481Z,15.56
2022-07-28T06:49:50.618Z,15.38
2022-07-28T06:52:38.524Z,15.94
2022-07-28T06:55:25.678Z,15.85
2022-07-28T06:58:21.688Z,15.92
2022-07-28T07:01:09.093Z,16.03
2022-07-28T07:03:56.198Z,16.02
2022-07-28T07:06:43.655Z,16.05
2022-07-28T07:09:30.667Z,16.25
2022-07-28T07:12:17.649Z,16.29
2022-07-28T07:15:05.749Z,16.13
2022-07-28T07:17:54.251Z,16.26
2022-07-28T07:20:41.367Z,16.34
2022-07-28T07:23:29.764Z,16.51
2022-07-28T07:26:16.986Z,16.72
2022-07-28T07:29:05.239Z,16.75
2022-07-28T07:31:52.674Z,16.84
2022-07-28T07:34:40.443Z,16.69
2022-07-28T07:37:27.712Z,17.29
2022-07-28T07:40:14.634Z,17.61
2022-07-28T07:43:01.981Z,17.67
2022-07-28T07:45:49.006Z,17.48
2022-07-28T07:48:36.136Z,17.36
2022-07-28T07:51:23.237Z,17.66
2022-07-28T07:54:10.209Z,17.69
2022-07-28T07:56:57.432Z,17.94
2022-07-28T07:59:44.622Z,17.77
2022-07-28T08:02:31.563Z,18.50
2022-07-28T08:05:18.668Z,18.20
2022-07-28T08:08:07.032Z,18.39
2022-07-28T08:10:54.454Z,18.42
2022-07-28T08:13:41.417Z,18.49
2022-07-28T08:16:28.440Z,18.28
2022-07-28T08:19:15.426Z,18.33
2022-07-28T08:22:03.331Z,18.77
2022-07-28T08:24:50.750Z,19.19
2022-07-28T08:27:37.803Z,19.40
2022-07-28T08:30:28.844Z,19.51
2022-07-28T08:33:21.988Z,19.26
2022-07-28T08:36:09.064Z,19.56
2022-07-28T08:38:56.010Z,19.64
2022-07-28T08:41:45.805Z,19.44
2022-07-28T08:45:01.380Z,19.16
2022-07-28T08:48:07.677Z,19.38
2022-07-28T08:50:58.830Z,19.99
2022-07-28T08:53:46.594Z,19.79
2022-07-28T08:56:35.991Z,19.73
2022-07-28T08:59:23.914Z,20.10
2022-07-28T09:02:15.079Z,20.63
2022-07-28T09:05:04.322Z,20.71
2022-07-28T09:07:54.821Z,21.08
2022-07-28T09:10:42.169Z,20.94
2022-07-28T09:13:29.588Z,20.92
2022-07-28T09:16:16.670Z,20.75
2022-07-28T09:19:03.776Z,20.84
2022-07-28T09:21:51.076Z,21.00
2022-07-28T09:24:42.042Z,21.49
2022-07-28T09:27:29.090Z,21.49
2022-07-28T09:30:16.112Z,21.93
2022-07-28T09:33:42.343Z,21.99
2022-07-28T09:36:37.482Z,22.18
2022-07-28T09:39:32.658Z,22.14
2022-07-28T09:42:20.475Z,22.15
2022-07-28T09:45:25.239Z,22.47
2022-07-28T09:48:14.579Z,22.25
2022-07-28T09:51:13.412Z,22.91
2022-07-28T09:54:15.105Z,23.19
2022-07-28T09:57:02.725Z,22.93
2022-07-28T09:59:52.164Z,23.32
2022-07-28T10:02:50.122Z,23.47
2022-07-28T10:05:45.071Z,22.81
2022-07-28T10:08:48.896Z,23.13
2022-07-28T10:11:41.375Z,23.07
2022-07-28T10:14:33.450Z,22.78
2022-07-28T10:17:32.151Z,22.70
2022-07-28T10:20:19.155Z,22.40
2022-07-28T10:23:09.535Z,22.58
2022-07-28T10:25:58.260Z,22.28
2022-07-28T10:28:51.143Z,21.77
2022-07-28T10:32:00.491Z,22.52
2022-07-28T10:35:08.201Z,23.34
2022-07-28T10:38:08.075Z,22.91
2022-07-28T10:40:58.473Z,23.45
2022-07-28T10:43:46.703Z,23.53
2022-07-28T10:46:37.546Z,23.43
2022-07-28T10:49:32.784Z,23.16
2022-07-28T10:52:50.589Z,23.10
2022-07-28T10:55:51.110Z,23.30
2022-07-28T10:58:41.886Z,23.77
2022-07-28T11:01:49.701Z,23.92
2022-07-28T11:04:51.733Z,23.70
2022-07-28T11:07:40.114Z,23.21
2022-07-28T11:10:29.102Z,23.43
2022-07-28T11:13:32.930Z,23.25
2022-07-28T11:16:22.120Z,23.84
2022-07-28T11:19:40.239Z,23.81
2022-07-28T11:22:18.401Z,23.71
2022-07-28T11:25:19.390Z,24.57
2022-07-28T11:28:08.858Z,23.70
2022-07-28T11:30:56.255Z,24.74
2022-07-28T11:33:56.963Z,25.05
2022-07-28T11:37:05.510Z,25.05
2022-07-28T11:39:52.657Z,24.21
2022-07-28T11:42:40.118Z,24.19
2022-07-28T11:45:37.620Z,24.72
2022-07-28T11:48:26.437Z,24.79
2022-07-28T11:51:14.200Z,24.45
2022-07-28T11:54:01.810Z,24.33
2022-07-28T11:56:58.751Z,24.62
2022-07-28T11:59:51.387Z,24.93
2022-07-28T12:02:40.966Z,25.58
2022-07-28T12:05:28.060Z,25.49
2022-07-28T12:08:21.493Z,25.33
2022-07-28T12:11:08.474Z,24.05
2022-07-28T12:14:06.135Z,25.12
2022-07-28T12:16:53.412Z,25.58
2022-07-28T12:19:40.742Z,25.38
2022-07-28T12:22:28.350Z,25.45
2022-07-28T12:25:15.593Z,26.12
2022-07-28T12:28:22.849Z,25.55
2022-07-28T12:31:13.474Z,25.08
2022-07-28T12:34:09.826Z,24.02
2022-07-28T12:37:02.471Z,24.54
2022-07-28T12:39:53.016Z,24.84
2022-07-28T12:42:40.100Z,25.33
2022-07-28T12:45:28.672Z,25.35
2022-07-28T12:48:18.973Z,25.50
2022-07-28T12:51:06.232Z,25.80
2022-07-28T12:53:58.166Z,25.32
2022-07-28T12:56:49.070Z,25.13
2022-07-28T12:59:38.320Z,24.70
2022-07-28T13:02:37.912Z,25.72
2022-07-28T13:05:28.555Z,25.27
2022-07-28T13:08:15.619Z,25.80
2022-07-28T13:11:09.770Z,26.34
2022-07-28T13:14:00.236Z,25.81
2022-07-28T13:16:57.750Z,25.45
2022-07-28T13:19:45.879Z,25.30
2022-07-28T13:22:33.421Z,25.92
2022-07-28T13:25:21.001Z,26.32
2022-07-28T13:28:25.343Z,27.00
2022-07-28T13:31:12.434Z,26.90
2022-07-28T13:33:59.447Z,26.30
2022-07-28T13:36:46.564Z,26.54
2022-07-28T13:39:33.779Z,26.74
2022-07-28T13:42:21.242Z,26.33
2022-07-28T13:45:11.187Z,26.11
2022-07-28T13:48:05.051Z,26.40
2022-07-28T13:50:53.646Z,26.57
2022-07-28T13:53:41.419Z,26.46
2022-07-28T13:56:28.399Z,26.67
2022-07-28T13:59:27.626Z,26.13
2022-07-28T14:02:16.186Z,25.86
2022-07-28T14:05:04.292Z,26.31
2022-07-28T14:07:51.355Z,26.13
2022-07-28T14:10:38.941Z,26.48
2022-07-28T14:13:28.389Z,25.97
2022-07-28T14:16:22.891Z,26.18
2022-07-28T14:19:10.110Z,26.00
2022-07-28T14:21:57.117Z,25.92
2022-07-28T14:24:44.165Z,25.49
2022-07-28T14:27:31.214Z,25.57
2022-07-28T14:30:18.814Z,26.12
2022-07-28T14:33:06.478Z,26.05
2022-07-28T14:35:57.837Z,26.22
2022-07-28T14:38:54.264Z,26.54
2022-07-28T14:41:42.727Z,26.34
2022-07-28T14:44:29.967Z,26.51
2022-07-28T14:47:17.796Z,26.81
2022-07-28T14:50:05.369Z,26.79
2022-07-28T14:52:52.682Z,25.58
2022-07-28T14:55:39.639Z,26.38
2022-07-28T14:58:26.621Z,26.83
2022-07-28T15:01:14.460Z,26.80
2022-07-28T15:04:01.608Z,26.34
2022-07-28T15:06:48.645Z,26.21
2022-07-28T15:09:41.482Z,26.64
2022-07-28T15:12:30.506Z,26.42
2022-07-28T15:15:18.666Z,26.09
2022-07-28T15:18:05.718Z,26.27
2022-07-28T15:20:52.754Z,26.39
2022-07-28T15:23:39.713Z,26.24
2022-07-28T15:26:27.513Z,25.99
2022-07-28T15:29:14.516Z,26.51
2022-07-28T15:32:01.951Z,26.19
2022-07-28T15:34:51.344Z,26.72
2022-07-28T15:37:38.365Z,27.17
2022-07-28T15:40:25.384Z,26.79
2022-07-28T15:43:12.430Z,27.14
2022-07-28T15:46:03.404Z,26.95
2022-07-28T15:48:50.552Z,26.55
2022-07-28T15:51:39.033Z,26.75
2022-07-28T15:54:26.035Z,26.63
2022-07-28T15:57:13.937Z,27.32
2022-07-28T16:00:00.988Z,27.61
2022-07-28T16:02:48.118Z,27.28
2022-07-28T16:05:35.175Z,26.98
2022-07-28T16:08:23.843Z,27.09
2022-07-28T16:11:11.729Z,26.75
2022-07-28T16:13:58.718Z,26.53
2022-07-28T16:16:45.759Z,26.38
2022-07-28T16:19:48.617Z,26.98
2022-07-28T16:22:38.310Z,26.52
2022-07-28T16:25:26.207Z,26.45
2022-07-28T16:28:13.255Z,26.66
2022-07-28T16:31:00.273Z,26.83
2022-07-28T16:33:47.331Z,26.65
2022-07-28T16:36:34.283Z,26.75
2022-07-28T16:39:21.327Z,26.80
2022-07-28T16:42:09.036Z,26.53
2022-07-28T16:44:56.206Z,26.95
2022-07-28T16:47:44.332Z,27.79
2022-07-28T16:50:35.866Z,27.57
2022-07-28T16:53:22.950Z,27.41
2022-07-28T16:56:09.907Z,27.25
2022-07-28T16:59:00.491Z,27.38
2022-07-28T17:01:47.698Z,27.26
2022-07-28T17:04:34.722Z,26.80
2022-07-28T17:07:22.664Z,25.93
2022-07-28T17:10:11.453Z,26.23
2022-07-28T17:12:58.687Z,25.88
2022-07-28T17:15:45.783Z,25.68
2022-07-28T17:18:34.559Z,25.47
2022-07-28T17:21:21.693Z,25.35
2022-07-28T17:24:11.326Z,25.49
2022-07-28T17:27:36.644Z,25.34
2022-07-28T17:30:07.230Z,25.11
2022-07-28T17:32:54.274Z,25.04
2022-07-28T17:35:41.292Z,25.46
2022-07-28T17:38:32.952Z,25.29
2022-07-28T17:41:21.034Z,25.27
2022-07-28T17:44:08.308Z,25.14
2022-07-28T17:46:55.441Z,24.74
2022-07-28T17:49:45.590Z,24.19
2022-07-28T17:52:32.826Z,24.57
2022-07-28T17:55:40.752Z,24.51
2022-07-28T17:58:41.900Z,24.39
2022-07-28T18:01:29.309Z,24.06
2022-07-28T18:04:16.751Z,23.96
2022-07-28T18:07:04.092Z,23.86
2022-07-28T18:09:51.031Z,23.77
2022-07-28T18:12:38.238Z,23.42
2022-07-28T18:15:27.737Z,23.46
2022-07-28T18:18:18.218Z,23.13
2022-07-28T18:21:05.320Z,23.15
2022-07-28T18:23:52.412Z,22.95
2022-07-28T18:26:41.990Z,22.66
2022-07-28T18:29:38.171Z,22.48
2022-07-28T18:32:26.732Z,22.36
2022-07-28T18:35:16.090Z,22.16
2022-07-28T18:38:04.735Z,21.78
2022-07-28T18:40:52.821Z,21.67
2022-07-28T18:43:40.129Z,21.52
2022-07-28T18:46:27.355Z,21.36
2022-07-28T18:49:16.004Z,21.27
2022-07-28T18:52:03.400Z,21.29
2022-07-28T18:54:52.054Z,21.06
2022-07-28T18:57:39.268Z,21.01
2022-07-28T19:00:26.335Z,20.94
2022-07-28T19:03:13.461Z,20.75
2022-07-28T19:06:00.642Z,20.77
2022-07-28T19:08:47.944Z,20.64
2022-07-28T19:11:35.046Z,20.40
2022-07-28T19:14:21.992Z,20.10
2022-07-28T19:17:09.450Z,19.97
2022-07-28T19:19:56.546Z,20.05
2022-07-28T19:22:43.531Z,20.00
2022-07-28T19:25:30.525Z,19.84
2022-07-28T19:28:17.667Z,19.65
2022-07-28T19:31:10.120Z,19.54
2022-07-28T19:33:58.221Z,19.50
2022-07-28T19:36:46.476Z,19.37
2022-07-28T19:39:34.631Z,19.38
2022-07-28T19:42:21.795Z,19.22
2022-07-28T19:45:09.238Z,19.24
2022-07-28T19:47:56.199Z,19.40
2022-07-28T19:50:49.971Z,19.42
2022-07-28T19:53:38.248Z,19.34
2022-07-28T19:56:30.515Z,19.44
2022-07-28T19:59:18.577Z,19.34
2022-07-28T20:02:05.838Z,19.44
2022-07-28T20:04:52.841Z,19.09
2022-07-28T20:07:40.208Z,19.11
2022-07-28T20:10:27.225Z,19.12
2022-07-28T20:13:14.268Z,19.02
2022-07-28T20:16:01.241Z,18.82
2022-07-28T20:18:48.484Z,18.63
2022-07-28T20:21:39.256Z,18.65
2022-07-28T20:24:27.129Z,18.43
2022-07-28T20:27:14.066Z,18.11
2022-07-28T20:30:01.337Z,17.91
2022-07-28T20:32:49.567Z,18.05
2022-07-28T20:35:36.672Z,17.93
2022-07-28T20:38:23.904Z,17.78
2022-07-28T20:41:11.155Z,17.63
2022-07-28T20:44:27.375Z,17.59
2022-07-28T20:47:05.264Z,17.85
2022-07-28T20:49:52.399Z,17.63
2022-07-28T20:52:39.367Z,17.80
2022-07-28T20:55:29.051Z,17.79
2022-07-28T20:58:16.066Z,17.77
2022-07-28T21:01:03.149Z,17.83
2022-07-28T21:03:50.333Z,17.67
2022-07-28T21:06:37.836Z,17.59
2022-07-28T21:09:24.886Z,17.34
2022-07-28T21:12:11.902Z,17.32
2022-07-28T21:14:58.854Z,17.26
2022-07-28T21:17:45.847Z,17.14
2022-07-28T21:20:32.852Z,17.18
2022-07-28T21:23:19.928Z,16.98
2022-07-28T21:26:11.302Z,17.07
2022-07-28T21:32:06.091Z,17.04
2022-07-28T21:34:53.107Z,17.01
2022-07-28T21:37:40.118Z,16.90
2022-07-28T21:40:27.071Z,16.86
2022-07-28T21:43:14.095Z,16.97
2022-07-28T21:46:01.403Z,16.95
2022-07-28T21:48:50.402Z,17.00
2022-07-28T21:51:37.839Z,16.93
2022-07-28T21:54:24.893Z,16.73
2022-07-28T21:57:22.458Z,16.81
2022-07-28T22:00:13.688Z,16.69
2022-07-28T22:03:01.102Z,16.71
2022-07-28T22:05:48.951Z,16.66
2022-07-28T22:08:36.134Z,16.74
2022-07-28T22:11:23.602Z,16.75
2022-07-28T22:14:10.806Z,16.89
2022-07-28T22:17:01.464Z,16.77
2022-07-28T22:19:48.699Z,16.79
2022-07-28T22:22:35.852Z,16.77
2022-07-28T22:25:23.015Z,16.66
2022-07-28T22:28:10.022Z,16.64
2022-07-28T22:31:09.450Z,16.69
2022-07-28T22:33:57.656Z,16.74
2022-07-28T22:36:45.080Z,16.94
2022-07-28T22:39:33.451Z,16.92
2022-07-28T22:42:20.461Z,16.90
2022-07-28T22:45:08.341Z,16.80
2022-07-28T22:47:55.354Z,16.83
2022-07-28T22:50:42.589Z,16.87
2022-07-28T22:53:29.530Z,16.77
2022-07-28T22:56:17.306Z,16.88
2022-07-28T22:59:04.475Z,16.95
2022-07-28T23:01:51.462Z,16.96
2022-07-28T23:04:38.911Z,16.94
2022-07-28T23:07:52.865Z,16.86
2022-07-28T23:10:33.058Z,16.93
2022-07-28T23:13:20.908Z,16.96
2022-07-28T23:16:12.086Z,16.98
2022-07-28T23:18:59.359Z,16.99
2022-07-28T23:21:46.354Z,17.04
2022-07-28T23:24:33.349Z,16.88
2022-07-28T23:27:21.232Z,16.93
2022-07-28T23:30:08.502Z,17.09
2022-07-28T23:32:55.634Z,17.09
2022-07-28T23:35:42.934Z,17.02
2022-07-28T23:38:29.942Z,16.98
2022-07-28T23:41:16.934Z,17.04
2022-07-28T23:44:04.112Z,17.02
2022-07-28T23:46:51.130Z,16.89
2022-07-28T23:49:38.186Z,16.95
2022-07-28T23:52:25.167Z,16.84
2022-07-28T23:55:12.432Z,16.87
2022-07-28T23:57:59.375Z,16.80
